createdAt,value
2023-02-10T00:01:27.303Z,-1.60
2023-02-10T00:03:55.191Z,-1.60
2023-02-10T00:06:24.808Z,-1.60
2023-02-10T00:08:52.519Z,-1.60
2023-02-10T00:11:19.665Z,-1.60
2023-02-10T00:13:47.306Z,-1.60
2023-02-10T00:16:16.468Z,-1.60
2023-02-10T00:18:43.329Z,-1.60
2023-02-10T00:21:14.073Z,-1.60
2023-02-10T00:23:40.873Z,-1.60
2023-02-10T00:26:10.523Z,-1.60
2023-02-10T00:28:37.413Z,-1.70
2023-02-10T00:31:13.495Z,-1.70
2023-02-10T00:33:40.933Z,-1.60
2023-02-10T00:36:09.973Z,-1.60
2023-02-10T00:38:37.514Z,-1.70
2023-02-10T00:41:05.618Z,-1.80
2023-02-10T00:43:32.518Z,-1.70
2023-02-10T00:45:59.374Z,-1.70
2023-02-10T00:48:26.561Z,-1.70
2023-02-10T00:50:53.145Z,-1.80
2023-02-10T00:53:19.730Z,-1.80
2023-02-10T00:55:46.788Z,-1.80
2023-02-10T00:58:13.724Z,-1.70
2023-02-10T01:00:40.365Z,-1.80
2023-02-10T01:03:07.214Z,-1.90
2023-02-10T01:05:33.911Z,-1.80
2023-02-10T01:08:00.556Z,-1.80
2023-02-10T01:10:27.814Z,-1.90
2023-02-10T01:12:54.528Z,-1.90
2023-02-10T01:15:21.298Z,-1.90
2023-02-10T01:17:47.934Z,-1.80
2023-02-10T01:20:14.630Z,-1.90
2023-02-10T01:22:41.199Z,-1.90
2023-02-10T01:25:07.957Z,-1.90
2023-02-10T01:27:34.686Z,-1.90
2023-02-10T01:30:01.376Z,-1.90
2023-02-10T01:32:27.956Z,-1.90
2023-02-10T01:34:54.579Z,-1.80
2023-02-10T01:37:21.168Z,-1.90
2023-02-10T01:39:47.900Z,-1.90
2023-02-10T01:42:17.727Z,-1.90
2023-02-10T01:44:44.265Z,-1.90
2023-02-10T01:47:11.619Z,-1.90
2023-02-10T01:49:46.522Z,-1.90
2023-02-10T01:52:18.783Z,-1.80
2023-02-10T01:54:49.430Z,-1.80
2023-02-10T01:57:17.607Z,-1.60
2023-02-10T01:59:44.405Z,-1.60
2023-02-10T02:02:13.486Z,-1.60
2023-02-10T02:04:50.664Z,-1.50
2023-02-10T02:07:19.616Z,-1.50
2023-02-10T02:09:47.115Z,-1.50
2023-02-10T02:12:28.047Z,-1.40
2023-02-10T02:15:04.404Z,-1.40
2023-02-10T02:17:38.749Z,-1.40
2023-02-10T02:20:41.969Z,-1.40
2023-02-10T02:23:45.433Z,-1.40
2023-02-10T02:26:41.904Z,-1.40
2023-02-10T02:29:31.821Z,-1.30
2023-02-10T02:32:01.071Z,-1.30
2023-02-10T02:34:54.761Z,-1.40
2023-02-10T02:37:27.649Z,-1.30
2023-02-10T02:39:56.645Z,-1.40
2023-02-10T02:42:28.878Z,-1.40
2023-02-10T02:45:03.899Z,-1.40
2023-02-10T02:47:42.626Z,-1.40
2023-02-10T02:50:28.215Z,-1.50
2023-02-10T02:53:32.952Z,-1.40
2023-02-10T02:56:20.545Z,-1.50
2023-02-10T02:58:50.917Z,-1.50
2023-02-10T03:01:31.186Z,-1.60
2023-02-10T03:03:59.624Z,-1.60
2023-02-10T03:06:26.494Z,-1.60
2023-02-10T03:08:54.564Z,-1.60
2023-02-10T03:11:21.261Z,-1.50
2023-02-10T03:13:47.938Z,-1.50
2023-02-10T03:16:14.792Z,-1.50
2023-02-10T03:18:41.522Z,-1.50
2023-02-10T03:21:08.256Z,-1.50
2023-02-10T03:23:35.109Z,-1.50
2023-02-10T03:26:02.165Z,-1.60
2023-02-10T03:28:29.259Z,-1.50
2023-02-10T03:30:56.001Z,-1.50
2023-02-10T03:33:23.793Z,-1.50
2023-02-10T03:35:54.850Z,-1.40
2023-02-10T03:38:21.899Z,-1.40
2023-02-10T03:40:52.408Z,-1.40
2023-02-10T03:43:20.296Z,-1.30
2023-02-10T03:45:47.609Z,-1.20
2023-02-10T03:48:16.534Z,-1.20
2023-02-10T03:50:43.510Z,-1.20
2023-02-10T03:53:11.040Z,-1.10
2023-02-10T03:55:37.823Z,-1.00
2023-02-10T03:58:04.851Z,-1.00
2023-02-10T04:00:31.828Z,-1.10
2023-02-10T04:02:58.531Z,-1.10
2023-02-10T04:05:25.224Z,-1.10
2023-02-10T04:07:51.849Z,-1.20
2023-02-10T04:10:18.531Z,-1.10
2023-02-10T04:12:45.161Z,-1.00
2023-02-10T04:15:11.831Z,-1.00
2023-02-10T04:17:38.453Z,-0.90
2023-02-10T04:20:05.462Z,-0.90
2023-02-10T04:22:32.466Z,-0.90
2023-02-10T04:24:59.110Z,-1.00
2023-02-10T04:27:25.920Z,-0.90
2023-02-10T04:29:52.556Z,-0.80
2023-02-10T04:32:19.305Z,-0.90
2023-02-10T04:34:47.028Z,-0.90
2023-02-10T04:37:14.206Z,-0.90
2023-02-10T04:39:40.833Z,-0.80
2023-02-10T04:42:07.696Z,-0.90
2023-02-10T04:44:34.316Z,-0.80
2023-02-10T04:47:01.140Z,-0.80
2023-02-10T04:49:27.924Z,-0.80
2023-02-10T04:51:55.373Z,-0.90
2023-02-10T04:54:22.248Z,-0.80
2023-02-10T04:56:49.120Z,-0.90
2023-02-10T04:59:15.822Z,-0.80
2023-02-10T05:01:42.513Z,-1.00
2023-02-10T05:04:09.214Z,-0.90
2023-02-10T05:06:35.917Z,-0.90
2023-02-10T05:09:02.676Z,-0.90
2023-02-10T05:11:29.333Z,-0.90
2023-02-10T05:13:56.078Z,-0.80
2023-02-10T05:16:22.700Z,-0.80
2023-02-10T05:18:49.444Z,-0.90
2023-02-10T05:21:16.063Z,-0.80
2023-02-10T05:23:42.896Z,-0.80
2023-02-10T05:26:09.561Z,-0.80
2023-02-10T05:28:36.276Z,-0.70
2023-02-10T05:31:05.808Z,-0.80
2023-02-10T05:33:32.434Z,-0.90
2023-02-10T05:35:59.021Z,-0.80
2023-02-10T05:38:27.364Z,-0.80
2023-02-10T05:40:54.464Z,-0.80
2023-02-10T05:43:21.068Z,-0.80
2023-02-10T05:45:48.722Z,-0.70
2023-02-10T05:48:15.605Z,-0.70
2023-02-10T05:50:42.577Z,-0.70
2023-02-10T05:53:10.005Z,-0.80
2023-02-10T05:55:37.207Z,-0.80
2023-02-10T05:58:05.142Z,-0.80
2023-02-10T06:00:32.020Z,-0.70
2023-02-10T06:02:58.702Z,-0.90
2023-02-10T06:05:25.364Z,-0.80
2023-02-10T06:07:52.126Z,-0.80
2023-02-10T06:10:19.124Z,-0.80
2023-02-10T06:12:45.824Z,-0.90
2023-02-10T06:15:12.436Z,-0.90
2023-02-10T06:17:39.754Z,-1.00
2023-02-10T06:20:06.696Z,-1.10
2023-02-10T06:22:33.352Z,-1.10
2023-02-10T06:25:00.050Z,-1.20
2023-02-10T06:27:26.647Z,-1.20
2023-02-10T06:29:53.606Z,-1.20
2023-02-10T06:32:20.199Z,-1.20
2023-02-10T06:34:46.853Z,-1.30
2023-02-10T06:37:13.491Z,-1.30
2023-02-10T06:39:41.767Z,-1.30
2023-02-10T06:42:08.394Z,-1.30
2023-02-10T06:44:34.976Z,-1.40
2023-02-10T06:47:01.709Z,-1.40
2023-02-10T06:49:28.313Z,-1.40
2023-02-10T06:51:56.223Z,-1.50
2023-02-10T06:54:23.831Z,-1.50
2023-02-10T06:56:50.718Z,-1.50
2023-02-10T06:59:17.972Z,-1.60
2023-02-10T07:01:44.841Z,-1.50
2023-02-10T07:04:11.769Z,-1.50
2023-02-10T07:06:39.253Z,-1.50
2023-02-10T07:09:06.386Z,-1.50
2023-02-10T07:11:34.140Z,-1.40
2023-02-10T07:14:00.720Z,-1.40
2023-02-10T07:16:28.974Z,-1.20
2023-02-10T07:18:55.617Z,-1.20
2023-02-10T07:21:22.235Z,-1.10
2023-02-10T07:23:48.884Z,-1.10
2023-02-10T07:26:18.780Z,-1.10
2023-02-10T07:28:45.933Z,-1.20
2023-02-10T07:31:13.110Z,-1.10
2023-02-10T07:33:40.171Z,-1.00
2023-02-10T07:36:07.728Z,-0.90
2023-02-10T07:38:34.973Z,-0.80
2023-02-10T07:41:01.712Z,-0.70
2023-02-10T07:43:28.667Z,-0.70
2023-02-10T07:45:55.356Z,-0.60
2023-02-10T07:48:22.204Z,-0.40
2023-02-10T07:50:49.603Z,-0.20
2023-02-10T07:53:16.276Z,-0.10
2023-02-10T07:55:42.963Z,0.10
2023-02-10T07:58:09.829Z,0.30
2023-02-10T08:00:36.838Z,0.50
2023-02-10T08:03:03.763Z,0.60
2023-02-10T08:05:30.612Z,0.60
2023-02-10T08:07:57.572Z,0.60
2023-02-10T08:10:24.208Z,0.70
2023-02-10T08:12:50.986Z,1.00
2023-02-10T08:15:18.104Z,0.90
2023-02-10T08:17:45.818Z,1.10
2023-02-10T08:20:12.575Z,0.70
2023-02-10T08:22:39.645Z,0.40
2023-02-10T08:25:06.705Z,0.50
2023-02-10T08:27:33.322Z,0.60
2023-02-10T08:29:59.973Z,0.60
2023-02-10T08:32:26.639Z,0.70
2023-02-10T08:34:53.781Z,0.90
2023-02-10T08:37:20.567Z,0.80
2023-02-10T08:39:47.284Z,0.70
2023-02-10T08:42:13.993Z,0.80
2023-02-10T08:44:40.618Z,0.80
2023-02-10T08:47:09.536Z,0.90
2023-02-10T08:49:36.398Z,1.10
2023-02-10T08:52:03.218Z,1.40
2023-02-10T08:54:29.839Z,1.60
2023-02-10T08:56:56.599Z,1.50
2023-02-10T08:59:23.517Z,1.40
2023-02-10T09:01:51.159Z,1.30
2023-02-10T09:04:18.132Z,1.30
2023-02-10T09:06:44.920Z,1.20
2023-02-10T09:09:15.482Z,1.20
2023-02-10T09:11:42.661Z,1.30
2023-02-10T09:14:10.229Z,1.50
2023-02-10T09:16:37.233Z,1.50
2023-02-10T09:19:04.530Z,1.60
2023-02-10T09:21:45.774Z,1.60
2023-02-10T09:24:13.156Z,1.60
2023-02-10T09:26:39.790Z,1.60
2023-02-10T09:29:06.650Z,1.60
2023-02-10T09:31:34.508Z,1.50
2023-02-10T09:34:01.439Z,1.50
2023-02-10T09:36:28.030Z,1.40
2023-02-10T09:38:56.349Z,1.30
2023-02-10T09:41:35.015Z,1.30
2023-02-10T09:44:04.603Z,1.30
2023-02-10T09:46:47.620Z,1.40
2023-02-10T09:49:44.547Z,1.30
2023-02-10T09:52:37.117Z,1.50
2023-02-10T09:55:14.414Z,1.60
2023-02-10T09:57:46.075Z,1.80
2023-02-10T10:00:24.316Z,1.90
2023-02-10T10:02:54.192Z,1.80
2023-02-10T10:05:32.724Z,1.80
2023-02-10T10:08:02.008Z,1.80
2023-02-10T10:10:41.564Z,1.90
2023-02-10T10:13:17.291Z,1.80
2023-02-10T10:16:07.390Z,2.00
2023-02-10T10:18:59.954Z,2.10
2023-02-10T10:21:52.548Z,2.10
2023-02-10T10:24:46.468Z,2.10
2023-02-10T10:27:32.952Z,2.30
2023-02-10T10:30:08.634Z,2.20
2023-02-10T10:32:45.135Z,2.20
2023-02-10T10:35:37.016Z,2.20
2023-02-10T10:38:15.123Z,2.30
2023-02-10T10:40:44.162Z,2.20
2023-02-10T10:43:18.670Z,2.10
2023-02-10T10:45:53.668Z,2.10
2023-02-10T10:48:27.914Z,2.10
2023-02-10T10:50:59.659Z,2.20
2023-02-10T10:53:49.480Z,2.40
2023-02-10T10:56:39.051Z,2.60
2023-02-10T10:59:21.563Z,2.80
2023-02-10T11:01:49.813Z,2.50
2023-02-10T11:04:24.633Z,2.50
2023-02-10T11:06:53.739Z,2.60
2023-02-10T11:09:36.334Z,2.50
2023-02-10T11:12:15.876Z,2.30
2023-02-10T11:14:45.695Z,2.40
2023-02-10T11:17:26.265Z,2.40
2023-02-10T11:20:03.533Z,2.20
2023-02-10T11:22:30.222Z,2.10
2023-02-10T11:24:59.823Z,2.20
2023-02-10T11:27:26.546Z,2.30
2023-02-10T11:29:56.143Z,2.40
2023-02-10T11:32:27.542Z,2.30
2023-02-10T11:34:57.450Z,2.50
2023-02-10T11:37:31.798Z,2.40
2023-02-10T11:40:01.697Z,2.40
2023-02-10T11:42:34.249Z,2.50
2023-02-10T11:45:08.737Z,2.50
2023-02-10T11:47:35.382Z,2.40
2023-02-10T11:50:02.156Z,2.30
2023-02-10T11:52:31.074Z,2.40
2023-02-10T11:54:57.946Z,2.40
2023-02-10T11:57:55.072Z,2.60
2023-02-10T12:00:28.183Z,2.60
2023-02-10T12:03:19.699Z,2.50
2023-02-10T12:05:55.128Z,2.60
2023-02-10T12:08:43.291Z,2.60
2023-02-10T12:11:54.416Z,2.50
2023-02-10T12:14:55.979Z,2.60
2023-02-10T12:17:49.505Z,2.70
2023-02-10T12:20:24.931Z,2.60
2023-02-10T12:23:29.381Z,2.60
2023-02-10T12:26:24.293Z,2.90
2023-02-10T12:28:59.625Z,3.20
2023-02-10T12:31:51.173Z,3.30
2023-02-10T12:34:42.353Z,3.40
2023-02-10T12:37:52.267Z,3.70
2023-02-10T12:41:02.869Z,3.70
2023-02-10T12:43:53.578Z,3.50
2023-02-10T12:46:42.016Z,3.60
2023-02-10T12:49:46.548Z,3.70
2023-02-10T12:52:28.116Z,3.50
2023-02-10T12:55:26.128Z,3.60
2023-02-10T12:58:13.666Z,3.70
2023-02-10T13:01:06.535Z,3.80
2023-02-10T13:03:37.655Z,3.90
2023-02-10T13:06:19.632Z,3.90
2023-02-10T13:09:16.816Z,3.70
2023-02-10T13:11:52.623Z,3.80
2023-02-10T13:14:29.532Z,4.00
2023-02-10T13:16:59.204Z,3.80
2023-02-10T13:19:52.979Z,3.70
2023-02-10T13:22:41.149Z,3.70
2023-02-10T13:25:19.403Z,3.80
2023-02-10T13:28:10.718Z,3.80
2023-02-10T13:31:15.292Z,3.90
2023-02-10T13:34:20.659Z,4.10
2023-02-10T13:37:00.377Z,4.50
2023-02-10T13:39:31.392Z,4.50
2023-02-10T13:42:17.433Z,4.40
2023-02-10T13:44:44.993Z,4.20
2023-02-10T13:47:49.011Z,4.40
2023-02-10T13:50:15.667Z,4.60
2023-02-10T13:52:56.344Z,4.80
2023-02-10T13:55:22.907Z,4.80
2023-02-10T13:58:04.353Z,4.90
2023-02-10T14:00:52.156Z,4.70
2023-02-10T14:03:31.234Z,4.70
2023-02-10T14:06:06.364Z,4.40
2023-02-10T14:08:38.979Z,4.40
2023-02-10T14:11:19.319Z,4.40
2023-02-10T14:14:02.722Z,4.40
2023-02-10T14:16:39.515Z,4.50
2023-02-10T14:19:21.089Z,4.40
2023-02-10T14:21:48.757Z,4.40
2023-02-10T14:24:26.700Z,4.30
2023-02-10T14:27:01.809Z,4.30
2023-02-10T14:29:31.412Z,4.30
2023-02-10T14:31:59.311Z,4.10
2023-02-10T14:34:29.706Z,4.30
2023-02-10T14:36:58.060Z,4.20
2023-02-10T14:39:26.837Z,4.10
2023-02-10T14:41:53.601Z,4.10
2023-02-10T14:44:54.242Z,4.20
2023-02-10T14:47:24.765Z,4.20
2023-02-10T14:49:52.436Z,4.10
2023-02-10T14:52:39.603Z,4.10
2023-02-10T14:55:41.862Z,4.10
2023-02-10T14:58:13.353Z,4.10
2023-02-10T15:00:42.759Z,4.20
2023-02-10T15:03:13.709Z,4.20
2023-02-10T15:05:48.721Z,4.20
2023-02-10T15:08:24.961Z,4.30
2023-02-10T15:10:55.273Z,4.30
2023-02-10T15:13:27.581Z,4.30
2023-02-10T15:15:55.160Z,4.40
2023-02-10T15:18:27.451Z,4.20
2023-02-10T15:21:00.140Z,4.30
2023-02-10T15:23:33.100Z,4.30
2023-02-10T15:26:18.086Z,4.30
2023-02-10T15:28:45.245Z,4.40
2023-02-10T15:31:15.002Z,4.30
2023-02-10T15:33:46.197Z,4.40
2023-02-10T15:36:34.223Z,4.30
2023-02-10T15:39:16.464Z,4.20
2023-02-10T15:42:05.900Z,4.30
2023-02-10T15:44:38.921Z,4.20
2023-02-10T15:47:18.018Z,4.10
2023-02-10T15:49:48.952Z,4.00
2023-02-10T15:52:38.969Z,4.00
2023-02-10T15:55:15.716Z,4.00
2023-02-10T15:57:42.433Z,3.90
2023-02-10T16:00:20.714Z,3.80
2023-02-10T16:02:47.583Z,3.70
2023-02-10T16:05:14.365Z,3.70
2023-02-10T16:07:41.624Z,3.60
2023-02-10T16:10:16.019Z,3.60
2023-02-10T16:12:42.751Z,3.50
2023-02-10T16:15:14.671Z,3.40
2023-02-10T16:17:44.348Z,3.30
2023-02-10T16:20:16.299Z,3.20
2023-02-10T16:22:42.945Z,3.10
2023-02-10T16:25:09.592Z,3.10
2023-02-10T16:27:36.316Z,3.00
2023-02-10T16:30:04.541Z,2.90
2023-02-10T16:32:31.229Z,2.90
2023-02-10T16:34:57.858Z,2.80
2023-02-10T16:37:24.621Z,2.70
2023-02-10T16:39:51.639Z,2.70
2023-02-10T16:42:20.014Z,2.60
2023-02-10T16:44:48.654Z,2.50
2023-02-10T16:47:19.356Z,2.50
2023-02-10T16:49:46.193Z,2.50
2023-02-10T16:52:12.788Z,2.50
2023-02-10T16:54:39.401Z,2.50
2023-02-10T16:57:07.249Z,2.50
2023-02-10T16:59:33.903Z,2.50
2023-02-10T17:02:00.669Z,2.50
2023-02-10T17:04:27.304Z,2.40
2023-02-10T17:06:56.836Z,2.40
2023-02-10T17:09:26.032Z,2.40
2023-02-10T17:11:52.850Z,2.30
2023-02-10T17:14:19.643Z,2.20
2023-02-10T17:16:52.149Z,2.20
2023-02-10T17:19:23.480Z,2.10
2023-02-10T17:21:50.532Z,2.10
2023-02-10T17:24:17.175Z,2.00
2023-02-10T17:26:48.378Z,1.90
2023-02-10T17:29:16.692Z,1.90
2023-02-10T17:31:44.681Z,1.80
2023-02-10T17:34:12.010Z,1.80
2023-02-10T17:36:41.053Z,1.70
2023-02-10T17:39:25.800Z,1.60
2023-02-10T17:41:53.264Z,1.60
2023-02-10T17:44:19.976Z,1.50
2023-02-10T17:46:49.691Z,1.40
2023-02-10T17:49:16.501Z,1.30
2023-02-10T17:51:43.546Z,1.30
2023-02-10T17:54:12.000Z,1.30
2023-02-10T17:56:38.673Z,1.20
2023-02-10T17:59:05.364Z,1.20
2023-02-10T18:01:32.028Z,1.10
2023-02-10T18:03:59.017Z,1.10
2023-02-10T18:06:28.725Z,1.10
2023-02-10T18:08:55.988Z,1.20
2023-02-10T18:11:23.014Z,1.10
2023-02-10T18:13:49.910Z,1.00
2023-02-10T18:16:17.507Z,1.00
2023-02-10T18:18:44.941Z,1.00
2023-02-10T18:21:16.328Z,1.10
2023-02-10T18:23:43.832Z,1.00
2023-02-10T18:26:11.651Z,1.00
2023-02-10T18:28:39.135Z,1.00
2023-02-10T18:31:06.693Z,0.90
2023-02-10T18:33:34.024Z,0.80
2023-02-10T18:36:01.003Z,0.80
2023-02-10T18:38:27.695Z,0.90
2023-02-10T18:40:59.058Z,0.90
2023-02-10T18:43:25.679Z,0.80
2023-02-10T18:45:53.287Z,0.80
2023-02-10T18:48:20.491Z,0.80
2023-02-10T18:50:48.564Z,0.80
2023-02-10T18:53:17.068Z,0.80
2023-02-10T18:55:45.993Z,0.80
2023-02-10T18:58:13.961Z,0.80
2023-02-10T19:00:41.612Z,0.80
2023-02-10T19:03:09.754Z,0.80
2023-02-10T19:05:36.974Z,0.80
2023-02-10T19:08:04.172Z,0.80
2023-02-10T19:10:30.962Z,0.70
2023-02-10T19:12:57.575Z,0.70
2023-02-10T19:15:24.287Z,0.70
2023-02-10T19:17:50.959Z,0.70
2023-02-10T19:20:17.778Z,0.60
2023-02-10T19:22:44.729Z,0.60
2023-02-10T19:25:11.354Z,0.60
2023-02-10T19:27:37.941Z,0.50
2023-02-10T19:30:04.928Z,0.60
2023-02-10T19:32:31.531Z,0.50
2023-02-10T19:34:58.242Z,0.60
2023-02-10T19:37:24.971Z,0.60
2023-02-10T19:39:51.719Z,0.50
2023-02-10T19:42:18.361Z,0.50
2023-02-10T19:44:45.465Z,0.40
2023-02-10T19:47:12.068Z,0.40
2023-02-10T19:49:38.867Z,0.40
2023-02-10T19:52:05.621Z,0.30
2023-02-10T19:54:32.348Z,0.40
2023-02-10T19:56:58.969Z,0.30
2023-02-10T19:59:25.700Z,0.30
2023-02-10T20:01:52.973Z,0.30
2023-02-10T20:04:19.627Z,0.30
2023-02-10T20:06:50.195Z,0.30
2023-02-10T20:09:17.294Z,0.30
2023-02-10T20:11:44.877Z,0.20
2023-02-10T20:14:12.056Z,0.20
2023-02-10T20:16:41.124Z,0.20
2023-02-10T20:19:08.862Z,0.20
2023-02-10T20:21:35.495Z,0.20
2023-02-10T20:24:02.327Z,0.20
2023-02-10T20:26:29.016Z,0.30
2023-02-10T20:29:02.925Z,0.30
2023-02-10T20:31:29.664Z,0.30
2023-02-10T20:33:56.685Z,0.40
2023-02-10T20:36:23.749Z,0.30
2023-02-10T20:38:50.544Z,0.30
2023-02-10T20:41:20.496Z,0.30
2023-02-10T20:43:48.554Z,0.30
2023-02-10T20:46:17.215Z,0.30
2023-02-10T20:48:45.668Z,0.30
2023-02-10T20:51:13.376Z,0.30
2023-02-10T20:53:42.706Z,0.40
2023-02-10T20:56:14.332Z,0.40
2023-02-10T20:58:41.147Z,0.50
2023-02-10T21:01:10.569Z,0.50
2023-02-10T21:03:39.359Z,0.50
2023-02-10T21:06:18.120Z,0.50
2023-02-10T21:08:46.650Z,0.40
2023-02-10T21:11:15.466Z,0.40
2023-02-10T21:13:42.365Z,0.40
2023-02-10T21:16:11.396Z,0.30
2023-02-10T21:18:38.237Z,0.40
2023-02-10T21:21:06.469Z,0.40
2023-02-10T21:23:33.257Z,0.50
2023-02-10T21:26:00.196Z,0.50
2023-02-10T21:28:27.927Z,0.60
2023-02-10T21:30:54.891Z,0.60
2023-02-10T21:33:23.310Z,0.60
2023-02-10T21:35:53.664Z,0.60
2023-02-10T21:38:22.022Z,0.60
2023-02-10T21:40:49.152Z,0.60
2023-02-10T21:43:16.296Z,0.70
2023-02-10T21:45:50.821Z,0.70
2023-02-10T21:48:17.793Z,0.70
2023-02-10T21:50:45.726Z,0.80
2023-02-10T21:53:12.732Z,0.80
2023-02-10T21:55:39.690Z,1.00
2023-02-10T21:58:06.382Z,1.10
2023-02-10T22:00:34.276Z,1.00
2023-02-10T22:03:01.244Z,1.00
2023-02-10T22:05:28.028Z,1.10
2023-02-10T22:07:56.592Z,1.20
2023-02-10T22:10:23.480Z,1.20
2023-02-10T22:12:50.082Z,1.20
2023-02-10T22:15:16.839Z,1.30
2023-02-10T22:17:43.475Z,1.30
2023-02-10T22:20:10.368Z,1.20
2023-02-10T22:22:37.064Z,1.20
2023-02-10T22:25:03.895Z,1.20
2023-02-10T22:27:30.506Z,1.20
2023-02-10T22:29:57.182Z,1.20
2023-02-10T22:32:26.311Z,1.10
2023-02-10T22:34:53.062Z,1.10
2023-02-10T22:37:19.779Z,1.10
2023-02-10T22:39:46.464Z,1.20
2023-02-10T22:42:13.110Z,1.20
2023-02-10T22:44:41.670Z,1.20
2023-02-10T22:47:08.465Z,1.20
2023-02-10T22:49:35.118Z,1.10
2023-02-10T22:52:01.862Z,1.20
2023-02-10T22:54:28.452Z,1.10
2023-02-10T22:56:55.084Z,1.20
2023-02-10T22:59:21.780Z,1.20
2023-02-10T23:01:48.368Z,1.20
2023-02-10T23:04:17.552Z,1.30
2023-02-10T23:06:45.432Z,1.30
2023-02-10T23:09:14.278Z,1.30
2023-02-10T23:11:44.687Z,1.30
2023-02-10T23:14:11.730Z,1.30
2023-02-10T23:16:38.730Z,1.20
2023-02-10T23:19:06.267Z,1.20
2023-02-10T23:21:33.004Z,1.10
2023-02-10T23:23:59.772Z,1.20
2023-02-10T23:26:32.886Z,1.20
2023-02-10T23:29:06.118Z,1.20
2023-02-10T23:31:33.201Z,1.20
2023-02-10T23:33:59.869Z,1.20
2023-02-10T23:36:27.346Z,1.30
2023-02-10T23:38:54.385Z,1.40
2023-02-10T23:41:21.669Z,1.40
2023-02-10T23:43:48.353Z,1.40
2023-02-10T23:46:16.168Z,1.40
2023-02-10T23:48:43.417Z,1.50
2023-02-10T23:51:12.989Z,1.50
2023-02-10T23:53:40.511Z,1.50
2023-02-10T23:56:07.839Z,1.60
2023-02-10T23:58:35.216Z,1.60
